Vermillion Estates, Illinois
Current Conditions -  °F | °C
As of 11:15 PM on Tuesday 25 Nov 2014 (Local Time) from KPNT Reporting Station
Clear Clear  
Wind Chill: 13°   Ceiling: Unl
Heat Index: 21°   Visibility: 10mi
Dew Point: 19°   Wind: 6mph
Humidity: 92%   Direction: 120°ESE
Pressure: 30.19"   Gusts: NA
Location:  40.8602°N, 88.6284°W
Report Text: KPNT 260515Z AUTO 12005KT 10SM CLR M06/M07 A3019 RMK AO2 T10611072
Loading
Personal Weather Stations






























Interactive Weather Map New forecast layout! Learn more

10-Day Weather Forecast

Advertisements
Track Severe Weather on mobile